Karumba Airport


Codes: YKMB/KRB
Name: Karumba Airport
City:
Country: Australia
Elevation: 5 ft.
Wikipedia:

Photos at Karumba Airport


   Photos courtesy of SpottingLog. You can add your own sightings and photos by signing up for a free trial today.



No photos found.

Weather at Karumba Airport


Time (UTC)DescriptionTempratureWindCloud coverageVisibilityPressureHumidity
23-May-2024 21:00Broken Clouds22°C7 mph, E56%10000m1014hPa70%
24-May-2024 00:00Broken Clouds24°C13 mph, E71%10000m1015hPa61%
24-May-2024 03:00Clear Sky29°C4 mph, E4%10000m1014hPa48%
24-May-2024 06:00Clear Sky30°C2 mph, NW3%10000m1011hPa44%
24-May-2024 09:00Clear Sky25°C9 mph, W6%10000m1013hPa68%
24-May-2024 12:00Clear Sky26°C7 mph, SW3%10000m1014hPa55%
24-May-2024 15:00Broken Clouds26°C13 mph, NE80%10000m1015hPa59%
24-May-2024 18:00Broken Clouds24°C11 mph, E84%10000m1015hPa60%
24-May-2024 21:00Clear Sky22°C11 mph, E0%10000m1016hPa64%
25-May-2024 00:00Clear Sky26°C13 mph, E0%10000m1017hPa55%
25-May-2024 03:00Few Clouds30°C7 mph, SE12%10000m1014hPa42%
25-May-2024 06:00Clear Sky31°C7 mph, SE7%10000m1012hPa37%
25-May-2024 09:00Clear Sky28°C9 mph, SE0%10000m1013hPa43%
25-May-2024 12:00Clear Sky26°C13 mph, S0%10000m1015hPa45%
25-May-2024 15:00Clear Sky24°C13 mph, SE0%10000m1015hPa46%
25-May-2024 18:00Clear Sky23°C11 mph, E0%10000m1015hPa63%
25-May-2024 21:00Clear Sky21°C13 mph, SE0%10000m1016hPa71%
26-May-2024 00:00Clear Sky25°C13 mph, E0%10000m1017hPa58%
26-May-2024 03:00Clear Sky30°C9 mph, SE0%10000m1015hPa42%
26-May-2024 06:00Clear Sky31°C11 mph, SE2%10000m1012hPa34%
26-May-2024 09:00Clear Sky28°C11 mph, S4%10000m1013hPa41%
26-May-2024 12:00Clear Sky26°C11 mph, S4%10000m1015hPa43%
26-May-2024 15:00Scattered Clouds24°C9 mph, SE28%10000m1015hPa46%
26-May-2024 18:00Scattered Clouds23°C7 mph, SE49%10000m1014hPa55%
26-May-2024 21:00Broken Clouds22°C11 mph, SE70%10000m1016hPa70%
27-May-2024 00:00Broken Clouds26°C16 mph, E53%10000m1017hPa58%
27-May-2024 03:00Clear Sky30°C11 mph, SE5%10000m1014hPa43%
27-May-2024 06:00Clear Sky31°C11 mph, SE5%10000m1012hPa35%
27-May-2024 09:00Broken Clouds28°C11 mph, SE72%10000m1013hPa41%
27-May-2024 12:00Scattered Clouds26°C11 mph, SE37%10000m1014hPa43%
27-May-2024 15:00Few Clouds24°C13 mph, SE11%10000m1014hPa42%
27-May-2024 18:00Scattered Clouds23°C11 mph, E28%10000m1014hPa57%
27-May-2024 21:00Scattered Clouds22°C11 mph, E35%10000m1015hPa70%
28-May-2024 00:00Few Clouds26°C16 mph, E20%10000m1016hPa49%
28-May-2024 03:00Overcast Clouds30°C11 mph, E100%10000m1013hPa39%
28-May-2024 06:00Broken Clouds31°C9 mph, SE79%10000m1011hPa35%
28-May-2024 09:00Few Clouds28°C9 mph, SE13%10000m1013hPa41%
28-May-2024 12:00Clear Sky26°C9 mph, SE6%10000m1014hPa45%
28-May-2024 15:00Clear Sky24°C11 mph, SE0%10000m1014hPa46%
28-May-2024 18:00Clear Sky23°C11 mph, E0%10000m1013hPa60%